Time;durP1;ratioP1;P1;durP2;ratioP2;P2;SDS_P1;SDS_P2;PMS_P1;PMS_P2;Temp;Humidity;BMP_temperature;BMP_pressure;BME280_temperature;BME280_humidity;BME280_pressure;Samples;Min_cycle;Max_cycle;Signal;HPM_P1;HPM_P2
2024/03/21 00:02:25;;;;;;;28.67;13.88;;;;;;;14.61;56.69;102070.28;4955574;28;100582;-88
2024/03/21 00:04:50;;;;;;;26.90;12.88;;;;;;;14.60;56.87;102079.91;4964473;28;97602;-88
2024/03/21 00:07:16;;;;;;;27.15;13.82;;;;;;;14.58;56.93;102081.63;4963491;28;96817;-87
2024/03/21 00:09:42;;;;;;;29.30;14.00;;;;;;;14.57;56.94;102087.69;4957043;28;96826;-87
2024/03/21 00:12:09;;;;;;;26.80;14.90;;;;;;;14.55;56.96;102094.66;4955530;28;97641;-87
2024/03/21 00:14:35;;;;;;;24.35;13.18;;;;;;;14.55;57.13;102104.31;4953271;28;100997;-87
2024/03/21 00:17:01;;;;;;;25.27;12.65;;;;;;;14.54;57.08;102103.38;4956157;28;96999;-86
2024/03/21 00:19:26;;;;;;;27.38;13.32;;;;;;;14.54;57.22;102094.63;4961533;28;96809;-86
2024/03/21 00:21:52;;;;;;;27.80;13.77;;;;;;;14.54;57.28;102099.91;4941240;28;100460;-87
2024/03/21 00:24:20;;;;;;;25.77;13.68;;;;;;;14.53;57.10;102108.63;4957265;28;96933;-86
2024/03/21 00:26:45;;;;;;;25.60;13.90;;;;;;;14.52;57.02;102107.75;4952399;28;97003;-87
2024/03/21 00:29:11;;;;;;;27.85;13.98;;;;;;;14.53;57.54;102106.00;4961360;28;96985;-87
2024/03/21 00:31:38;;;;;;;28.45;14.85;;;;;;;14.52;57.32;102099.84;4955813;28;97853;-86
2024/03/21 00:34:04;;;;;;;24.08;12.80;;;;;;;14.53;57.43;102091.13;4951578;28;100306;-86
2024/03/21 00:36:29;;;;;;;27.20;13.05;;;;;;;14.54;57.54;102092.88;4944393;28;96855;-87
2024/03/21 00:38:54;;;;;;;25.17;11.52;;;;;;;14.56;57.54;102087.66;4959032;28;97051;-87
2024/03/21 00:41:20;;;;;;;26.85;13.75;;;;;;;14.57;57.72;102092.06;4940442;28;100919;-86
2024/03/21 00:43:46;;;;;;;26.50;13.10;;;;;;;14.57;57.73;102085.06;4942682;28;100290;-87
2024/03/21 00:46:13;;;;;;;25.10;13.77;;;;;;;14.58;57.75;102081.63;4956707;28;96739;-87
2024/03/21 00:48:39;;;;;;;28.50;13.73;;;;;;;14.61;57.76;102080.78;4938525;28;97085;-87
2024/03/21 00:51:04;;;;;;;26.38;13.75;;;;;;;14.61;57.65;102094.78;4952587;28;98015;-87
2024/03/21 00:53:30;;;;;;;28.63;13.68;;;;;;;14.61;57.68;102088.66;4940738;28;100328;-87
2024/03/21 00:55:55;;;;;;;25.30;12.23;;;;;;;14.61;57.68;102089.53;4953519;28;96834;-88
2024/03/21 00:58:21;;;;;;;23.42;12.68;;;;;;;14.63;57.52;102089.56;4955444;28;96778;-88
2024/03/21 01:00:46;;;;;;;26.98;13.52;;;;;;;14.64;57.73;102076.47;4936480;28;100805;-88
2024/03/21 01:03:12;;;;;;;25.92;12.90;;;;;;;14.66;57.50;102077.38;4964128;28;97655;-87
2024/03/21 01:05:38;;;;;;;24.83;13.13;;;;;;;14.66;57.67;102077.38;4939921;28;96917;-88
2024/03/21 01:08:04;;;;;;;25.73;12.82;;;;;;;14.66;57.68;102093.13;4957420;28;96930;-88
2024/03/21 01:10:30;;;;;;;25.98;12.40;;;;;;;14.62;57.72;102093.94;4959176;28;97696;-87
2024/03/21 01:12:55;;;;;;;23.23;12.27;;;;;;;14.60;57.70;102086.91;4945284;28;100316;-87
2024/03/21 01:15:21;;;;;;;26.13;12.38;;;;;;;14.58;57.80;102094.75;4952869;28;96899;-86
2024/03/21 01:17:46;;;;;;;23.63;12.85;;;;;;;14.57;57.79;102107.81;4957826;28;97097;-87
2024/03/21 01:20:12;;;;;;;24.17;12.68;;;;;;;14.55;57.72;102093.78;4941405;28;100749;-87
2024/03/21 01:22:38;;;;;;;25.67;11.77;;;;;;;14.55;57.90;102096.41;4939283;28;100193;-86
2024/03/21 01:25:04;;;;;;;26.45;12.10;;;;;;;14.53;57.75;102095.47;4942606;28;97242;-86
2024/03/21 01:27:30;;;;;;;25.38;12.27;;;;;;;14.52;57.82;102106.88;4956111;28;96799;-87
2024/03/21 01:29:56;;;;;;;28.13;12.85;;;;;;;14.48;58.01;102121.69;4942134;28;100427;-86
2024/03/21 01:32:21;;;;;;;20.98;11.70;;;;;;;14.45;58.01;102119.88;4955132;28;97810;-86
2024/03/21 01:34:47;;;;;;;27.52;12.57;;;;;;;14.43;58.03;102116.34;4941183;28;97052;-87
2024/03/21 01:37:12;;;;;;;27.23;13.43;;;;;;;14.45;58.23;102119.00;4960223;28;96944;-87
2024/03/21 01:39:38;;;;;;;26.65;12.75;;;;;;;14.43;58.11;102118.09;4957646;28;100536;-87
2024/03/21 01:42:04;;;;;;;28.02;12.90;;;;;;;14.42;58.01;102114.59;4944227;28;100753;-86
2024/03/21 01:44:29;;;;;;;29.85;13.75;;;;;;;14.42;58.28;102111.06;4938894;28;96938;-88
2024/03/21 01:46:55;;;;;;;31.08;14.45;;;;;;;14.45;58.31;102119.88;4937832;28;96834;-87
2024/03/21 01:49:20;;;;;;;35.90;15.32;;;;;;;14.47;58.30;102117.28;4938998;28;100405;-87
2024/03/21 01:51:47;;;;;;;34.80;17.65;;;;;;;14.50;58.21;102111.22;4947592;28;99466;-88
2024/03/21 01:54:14;;;;;;;35.45;17.83;;;;;;;14.52;58.17;102117.38;4946517;28;96895;-86
2024/03/21 01:56:40;;;;;;;38.63;17.98;;;;;;;14.52;58.22;102106.88;4938120;28;97028;-87
2024/03/21 01:59:09;;;;;;;36.53;17.75;;;;;;;14.52;58.26;102104.25;4935081;28;100721;-87
2024/03/21 02:01:36;;;;;;;39.35;19.60;;;;;;;14.51;58.26;102111.25;4958225;28;99840;-88
2024/03/21 02:04:04;;;;;;;39.00;19.80;;;;;;;14.52;58.22;102114.75;4943633;28;97095;-86
2024/03/21 02:06:32;;;;;;;41.95;20.20;;;;;;;14.51;58.16;102108.63;4946876;28;97099;-86
2024/03/21 02:08:58;;;;;;;42.90;20.67;;;;;;;14.52;58.37;102107.75;4952460;28;100742;-87
2024/03/21 02:11:24;;;;;;;40.75;20.15;;;;;;;14.54;58.19;102113.91;4951687;28;100185;-87
2024/03/21 02:13:52;;;;;;;40.80;20.58;;;;;;;14.54;58.35;102107.75;4940920;28;96857;-86
2024/03/21 02:16:17;;;;;;;42.03;19.60;;;;;;;14.53;58.24;102109.53;4939458;28;97022;-87
2024/03/21 02:18:42;;;;;;;40.50;19.95;;;;;;;14.54;58.27;102102.50;4957535;28;98022;-87
2024/03/21 02:23:53;;;;;;;39.28;20.02;;;;;;;14.57;58.31;102099.94;4949977;28;96986;-88
2024/03/21 02:26:19;;;;;;;45.45;20.13;;;;;;;14.56;58.10;102100.78;4951696;28;96856;-88
2024/03/21 02:28:47;;;;;;;43.83;19.95;;;;;;;14.56;58.06;102103.41;4937494;28;100927;-87
2024/03/21 02:31:12;;;;;;;40.03;20.33;;;;;;;14.53;57.96;102098.09;4939935;28;100621;-87
2024/03/21 02:33:38;;;;;;;39.13;20.40;;;;;;;14.51;58.06;102100.75;4958689;28;96845;-88
2024/03/21 02:36:04;;;;;;;44.13;20.92;;;;;;;14.47;58.04;102109.41;4941564;28;96988;-88
2024/03/21 02:38:29;;;;;;;42.97;21.27;;;;;;;14.44;58.02;102114.63;4951473;28;97785;-87
2024/03/21 02:40:55;;;;;;;42.03;20.40;;;;;;;14.41;58.15;102114.56;4952093;28;100325;-87
2024/03/21 02:43:20;;;;;;;38.55;20.33;;;;;;;14.37;57.85;102108.38;4950534;28;96959;-87
2024/03/21 02:45:46;;;;;;;43.42;20.38;;;;;;;14.34;57.99;102112.69;4951006;28;96892;-88
2024/03/21 02:48:12;;;;;;;44.92;20.65;;;;;;;14.32;58.20;102111.78;4957343;28;97431;-87
2024/03/21 02:50:37;;;;;;;42.55;20.92;;;;;;;14.28;57.98;102121.34;4946490;28;100140;-87
2024/03/21 02:53:04;;;;;;;44.58;21.05;;;;;;;14.24;58.16;102127.38;4956326;28;96870;-88
2024/03/21 02:55:30;;;;;;;43.47;20.83;;;;;;;14.19;57.83;102127.31;4951810;28;96976;-88
2024/03/21 02:57:55;;;;;;;43.67;19.63;;;;;;;14.15;58.20;102135.97;4953406;28;100018;-88
2024/03/21 03:00:21;;;;;;;46.45;20.80;;;;;;;14.11;58.11;102131.53;4956257;28;100104;-88
2024/03/21 03:02:48;;;;;;;43.80;20.15;;;;;;;14.08;58.36;102136.69;4963777;28;96778;-88
2024/03/21 03:05:14;;;;;;;48.95;22.58;;;;;;;14.07;58.49;102129.72;4956841;28;96988;-87
2024/03/21 03:07:39;;;;;;;44.63;21.77;;;;;;;14.06;58.40;102133.16;4959692;28;98030;-88
2024/03/21 03:10:05;;;;;;;52.33;22.48;;;;;;;14.07;58.77;102130.59;4956286;28;99889;-88
2024/03/21 03:12:31;;;;;;;45.78;20.98;;;;;;;14.09;59.01;102133.25;4957161;28;96892;-88
2024/03/21 03:14:56;;;;;;;52.90;22.98;;;;;;;14.11;58.85;102142.03;4958037;28;96959;-88
2024/03/21 03:17:22;;;;;;;49.53;22.98;;;;;;;14.13;59.33;102153.41;4938740;28;100510;-88
2024/03/21 03:19:47;;;;;;;48.67;22.85;;;;;;;14.14;59.25;102163.06;4954267;28;100402;-88
2024/03/21 03:22:13;;;;;;;52.95;23.67;;;;;;;14.18;59.79;102164.03;4944122;28;96883;-88
2024/03/21 03:24:38;;;;;;;52.58;24.20;;;;;;;14.20;59.21;102171.03;4955018;28;96903;-88
2024/03/21 03:27:03;;;;;;;54.15;24.77;;;;;;;14.22;59.57;102174.59;4958159;28;97941;-88
2024/03/21 03:29:29;;;;;;;49.42;23.55;;;;;;;14.23;59.56;102178.13;4942376;28;100058;-87
2024/03/21 03:32:01;;;;;;;47.03;21.98;;;;;;;14.24;59.29;102186.03;4953835;28;96978;-87
2024/03/21 03:37:15;;;;;;;43.33;18.30;;;;;;;14.23;59.40;102188.59;4957195;28;97992;-87
2024/03/21 03:39:40;;;;;;;36.22;16.70;;;;;;;14.22;59.21;102197.31;4943702;28;100233;-88
2024/03/21 03:42:06;;;;;;;27.33;14.07;;;;;;;14.20;59.40;102202.53;4943710;28;96869;-88
2024/03/21 03:44:31;;;;;;;26.92;14.30;;;;;;;14.19;59.30;102207.75;4935183;28;97024;-88
2024/03/21 03:46:56;;;;;;;25.98;13.25;;;;;;;14.17;59.36;102206.84;4953851;28;100771;-88
2024/03/21 03:49:22;;;;;;;24.67;12.75;;;;;;;14.17;59.39;102206.84;4953889;28;98619;-88
2024/03/21 03:51:47;;;;;;;24.48;13.00;;;;;;;14.15;59.19;102211.19;4944212;28;96908;-87
2024/03/21 03:54:13;;;;;;;22.98;11.73;;;;;;;14.14;59.19;102215.56;4951776;28;96846;-88
2024/03/21 03:56:38;;;;;;;23.63;12.43;;;;;;;14.14;59.14;102210.31;4955119;28;97973;-86
2024/03/21 03:59:03;;;;;;;20.80;10.68;;;;;;;14.13;59.01;102208.53;4952547;28;99734;-87
2024/03/21 04:01:29;;;;;;;21.20;10.10;;;;;;;14.11;58.88;102214.59;4959436;28;96939;-87
2024/03/21 04:03:54;;;;;;;18.52;10.77;;;;;;;14.07;58.94;102224.16;4956564;28;96888;-88
2024/03/21 04:06:20;;;;;;;18.45;9.70;;;;;;;14.04;59.12;102213.59;4952992;28;100596;-87
2024/03/21 04:08:45;;;;;;;15.65;8.20;;;;;;;14.00;58.82;102217.91;4958877;28;98066;-88
2024/03/21 04:11:16;;;;;;;15.95;8.48;;;;;;;13.97;58.99;102225.69;4960384;28;96987;-88
2024/03/21 04:13:42;;;;;;;16.15;8.40;;;;;;;13.95;58.84;102223.91;4951597;28;96856;-88
2024/03/21 04:16:18;;;;;;;14.95;8.15;;;;;;;13.91;58.98;102236.06;4951093;28;99936;-88
2024/03/21 04:18:43;;;;;;;;;;;;;;;13.87;58.68;102237.75;4932234;28;100342;-88
2024/03/21 04:21:10;;;;;;;16.40;8.35;;;;;;;13.89;58.81;102237.78;4946932;28;96878;-87
2024/03/21 04:23:36;;;;;;;14.18;7.97;;;;;;;13.87;59.00;102256.09;4955616;28;96983;-88
2024/03/21 04:26:01;;;;;;;13.82;7.90;;;;;;;13.83;58.86;102251.66;4936201;28;100067;-87
2024/03/21 04:28:27;;;;;;;14.07;7.63;;;;;;;13.82;58.83;102263.00;4951965;28;100542;-88
2024/03/21 04:30:52;;;;;;;11.45;6.85;;;;;;;13.79;58.78;102257.66;4953644;28;96936;-87
2024/03/21 04:33:17;;;;;;;10.15;6.10;;;;;;;13.76;58.39;102272.44;4955201;28;96914;-88
2024/03/21 04:35:43;;;;;;;12.07;6.22;;;;;;;13.69;58.52;102261.84;4953157;28;99345;-88
2024/03/21 04:38:08;;;;;;;11.20;6.57;;;;;;;13.62;58.20;102273.03;4956259;28;97528;-88
2024/03/21 04:40:35;;;;;;;13.77;7.15;;;;;;;13.55;58.20;102275.47;4943525;28;96914;-87
2024/03/21 04:43:01;;;;;;;12.85;6.45;;;;;;;13.49;58.22;102281.44;4937606;28;97483;-88
2024/03/21 04:45:26;;;;;;;12.25;6.90;;;;;;;13.45;58.35;102293.59;4961617;28;100732;-87
2024/03/21 04:47:51;;;;;;;14.77;7.85;;;;;;;13.39;58.33;102298.72;4941102;28;100647;-87
2024/03/21 04:50:21;;;;;;;13.70;7.85;;;;;;;13.33;58.18;102296.84;4938837;28;96758;-87
2024/03/21 04:52:47;;;;;;;14.82;7.88;;;;;;;13.29;58.38;102297.53;4953110;28;96968;-87
2024/03/21 04:55:12;;;;;;;15.60;8.48;;;;;;;13.25;57.95;102300.06;4956768;28;97988;-88
2024/03/21 04:57:39;;;;;;;16.65;8.32;;;;;;;13.19;58.02;102294.66;4938903;28;100745;-87
2024/03/21 05:00:10;;;;;;;18.05;9.35;;;;;;;13.14;58.39;102303.31;4957869;28;96857;-87
2024/03/21 05:02:38;;;;;;;15.60;8.60;;;;;;;13.11;58.24;102308.47;4955947;28;97107;-87
2024/03/21 05:05:04;;;;;;;15.45;8.43;;;;;;;13.09;58.20;102318.00;4941242;28;99993;-87
2024/03/21 05:07:30;;;;;;;15.68;7.93;;;;;;;13.05;58.35;102321.41;4958348;28;98571;-88
2024/03/21 05:09:56;;;;;;;15.32;7.45;;;;;;;13.02;58.06;102323.06;4942001;28;97867;-88
2024/03/21 05:12:21;;;;;;;14.63;7.03;;;;;;;12.97;57.95;102325.56;4955389;28;96926;-88
2024/03/21 05:14:47;;;;;;;14.63;7.40;;;;;;;12.91;58.17;102328.91;4957739;28;97792;-88
2024/03/21 05:17:14;;;;;;;13.23;6.18;;;;;;;12.87;58.35;102332.28;4950395;28;100085;-86
2024/03/21 05:19:40;;;;;;;12.52;6.45;;;;;;;12.85;58.20;102341.84;4942401;28;96955;-86
2024/03/21 05:22:05;;;;;;;14.00;6.07;;;;;;;12.81;58.20;102345.19;4942579;28;97223;-87
2024/03/21 05:24:31;;;;;;;12.75;5.30;;;;;;;12.80;58.13;102350.41;4946587;28;100715;-88
2024/03/21 05:26:56;;;;;;;15.00;5.38;;;;;;;12.77;58.07;102352.09;4937878;28;101482;-87
2024/03/21 05:29:22;;;;;;;13.43;5.30;;;;;;;12.76;58.08;102355.56;4957798;28;96918;-87
2024/03/21 05:31:47;;;;;;;17.90;5.68;;;;;;;12.74;57.96;102353.72;4960609;28;96940;-88
2024/03/21 05:34:12;;;;;;;11.45;5.75;;;;;;;12.72;58.05;102358.94;4960522;28;98023;-88
2024/03/21 05:36:38;;;;;;;10.23;4.80;;;;;;;12.70;58.19;102354.50;4957943;28;100270;-88
2024/03/21 05:39:03;;;;;;;10.15;5.05;;;;;;;12.69;58.08;102361.47;4952607;28;97070;-87
2024/03/21 05:41:32;;;;;;;13.68;4.85;;;;;;;12.67;58.09;102360.53;4937581;28;96988;-86
2024/03/21 05:43:57;;;;;;;11.00;4.50;;;;;;;12.66;58.34;102365.75;4952233;28;100455;-86
2024/03/21 05:46:26;;;;;;;9.68;4.60;;;;;;;12.66;58.18;102365.75;4955251;28;97519;-85
2024/03/21 05:48:56;;;;;;;9.93;4.63;;;;;;;12.65;58.39;102366.56;4934192;28;96985;-85
2024/03/21 05:51:22;;;;;;;11.43;4.20;;;;;;;12.65;58.16;102372.69;4951775;28;96862;-86
2024/03/21 05:53:48;;;;;;;13.65;4.00;;;;;;;12.66;58.16;102379.72;4957848;28;100819;-85
2024/03/21 05:56:17;;;;;;;13.00;3.83;;;;;;;12.64;58.11;102381.41;4954395;28;97495;-84
2024/03/21 05:58:46;;;;;;;8.90;3.30;;;;;;;12.64;58.12;102383.13;4953044;28;96904;-86
2024/03/21 06:03:43;;;;;;;6.50;2.83;;;;;;;12.60;58.00;102391.72;4949263;28;100623;-87
2024/03/21 06:06:09;;;;;;;6.95;2.75;;;;;;;12.61;58.14;102390.91;4941457;28;100521;-89
2024/03/21 06:08:35;;;;;;;8.55;2.90;;;;;;;12.61;58.11;102397.00;4954113;28;96897;-87
2024/03/21 06:11:01;;;;;;;7.70;2.25;;;;;;;12.62;57.76;102408.38;4962059;28;97155;-92
2024/03/21 06:13:29;;;;;;;9.48;2.28;;;;;;;12.61;57.95;102407.47;4946435;28;99394;-91
2024/03/21 06:15:54;;;;;;;7.75;2.08;;;;;;;12.61;57.92;102411.84;4949446;28;98869;-91
2024/03/21 06:18:20;;;;;;;5.85;2.35;;;;;;;12.59;57.73;102414.41;4950153;28;96848;-90
2024/03/21 06:20:46;;;;;;;7.40;2.25;;;;;;;12.59;57.93;102409.19;4963808;28;96986;-91
2024/03/21 06:23:13;;;;;;;8.82;2.42;;;;;;;12.60;57.95;102415.28;4966286;28;98867;-90
2024/03/21 06:25:39;;;;;;;6.93;1.80;;;;;;;12.63;57.89;102418.00;4962775;28;100159;-91
2024/03/21 06:28:05;;;;;;;5.25;1.70;;;;;;;12.64;57.76;102420.69;4958585;28;96915;-91
2024/03/21 06:30:32;;;;;;;8.57;2.15;;;;;;;12.66;57.80;102431.19;4948693;28;97078;-91
2024/03/21 06:33:01;;;;;;;4.35;1.65;;;;;;;12.67;57.73;102427.72;4945486;28;100476;-92
2024/03/21 06:35:26;;;;;;;9.73;2.00;;;;;;;12.67;57.79;102428.59;4964860;28;100457;-91
2024/03/21 06:37:56;;;;;;;7.72;2.05;;;;;;;12.67;57.96;102438.19;4956904;28;96678;-91
2024/03/21 06:40:22;;;;;;;;;;;;;;;12.64;57.94;102439.00;4958159;28;96864;-91
2024/03/21 06:42:48;;;;;;;8.82;2.08;;;;;;;12.69;57.71;102433.88;4966003;28;99251;-91
2024/03/21 06:45:14;;;;;;;6.35;1.92;;;;;;;12.68;57.59;102438.22;4963696;28;100398;-92
2024/03/21 06:47:42;;;;;;;7.35;1.75;;;;;;;12.65;57.39;102443.38;4966958;28;96790;-92
2024/03/21 06:50:12;;;;;;;8.15;2.03;;;;;;;12.62;57.35;102451.16;4942128;28;96949;-92
2024/03/21 06:52:38;;;;;;;8.32;2.13;;;;;;;12.63;57.28;102466.00;4946569;28;99993;-91
2024/03/21 06:55:04;;;;;;;6.50;1.83;;;;;;;12.60;57.49;102460.66;4965715;28;100493;-93
2024/03/21 06:57:31;;;;;;;6.88;1.92;;;;;;;12.63;57.27;102463.38;4952340;28;96868;-91
2024/03/21 06:59:56;;;;;;;5.88;1.77;;;;;;;12.66;57.46;102468.72;4950908;28;96707;-92
2024/03/21 07:02:22;;;;;;;5.82;1.92;;;;;;;12.69;57.36;102462.69;4949195;28;99201;-91
2024/03/21 07:04:47;;;;;;;6.43;1.83;;;;;;;12.71;57.09;102474.09;4962784;28;100238;-91
2024/03/21 07:07:13;;;;;;;8.05;2.17;;;;;;;12.71;57.16;102485.47;4958452;28;96738;-91
2024/03/21 07:09:39;;;;;;;6.57;1.50;;;;;;;12.72;57.18;102494.19;4942999;28;96914;-86
2024/03/21 07:12:04;;;;;;;8.15;1.60;;;;;;;12.74;57.04;102490.78;4944938;28;100457;-84
2024/03/21 07:14:32;;;;;;;7.30;1.38;;;;;;;12.75;56.74;102486.44;4956746;28;100309;-86
2024/03/21 07:17:02;;;;;;;6.15;1.63;;;;;;;12.71;56.55;102501.16;4958109;28;96816;-91
2024/03/21 07:19:33;;;;;;;10.50;1.77;;;;;;;12.65;56.52;102503.59;4950923;28;96859;-86
2024/03/21 07:22:05;;;;;;;5.53;1.80;;;;;;;12.62;56.64;102495.66;4951613;28;100544;-85
2024/03/21 07:24:32;;;;;;;7.70;2.00;;;;;;;12.60;56.43;102499.06;4937536;28;100171;-86
2024/03/21 07:27:01;;;;;;;7.72;1.70;;;;;;;12.54;56.43;102503.25;4938053;28;96880;-87
2024/03/21 07:29:27;;;;;;;5.10;1.52;;;;;;;12.55;56.67;102505.03;4952890;28;96865;-85
2024/03/21 07:31:52;;;;;;;6.07;1.75;;;;;;;12.57;56.79;102507.72;4958499;28;99378;-86
2024/03/21 07:34:18;;;;;;;6.20;1.42;;;;;;;12.59;56.71;102499.91;4962493;28;97825;-86
2024/03/21 07:36:44;;;;;;;7.32;1.55;;;;;;;12.63;56.97;102502.66;4953487;28;97066;-86
2024/03/21 07:39:10;;;;;;;4.15;1.50;;;;;;;12.70;56.97;102501.13;4957048;28;96920;-86
2024/03/21 07:41:36;;;;;;;6.75;1.60;;;;;;;12.71;56.72;102503.78;4956779;28;98150;-86
2024/03/21 07:44:02;;;;;;;7.18;1.50;;;;;;;12.74;56.89;102508.22;4956400;28;97895;-86
2024/03/21 07:46:29;;;;;;;8.32;1.70;;;;;;;12.76;56.81;102515.28;4956845;28;96816;-86
2024/03/21 07:48:57;;;;;;;5.97;1.27;;;;;;;12.79;56.51;102522.34;4958107;28;96905;-86
2024/03/21 07:51:23;;;;;;;7.70;2.08;;;;;;;12.80;56.50;102526.75;4957403;28;100790;-86
2024/03/21 07:53:48;;;;;;;8.55;1.67;;;;;;;12.80;56.35;102534.59;4935693;28;100383;-86
2024/03/21 07:56:14;;;;;;;6.65;1.77;;;;;;;12.81;56.33;102540.72;4959814;28;96884;-86
2024/03/21 07:58:39;;;;;;;4.97;1.73;;;;;;;12.79;56.10;102542.41;4958075;28;97010;-86
2024/03/21 08:01:05;;;;;;;3.88;1.48;;;;;;;12.75;56.05;102537.06;4954938;28;97908;-86
2024/03/21 08:03:30;;;;;;;6.75;1.67;;;;;;;12.74;55.99;102531.78;4956032;28;100702;-85
2024/03/21 08:05:56;;;;;;;9.80;1.75;;;;;;;12.75;56.63;102534.44;4960547;28;96899;-84
2024/03/21 08:08:21;;;;;;;6.57;2.08;;;;;;;12.81;56.62;102533.75;4953997;28;96975;-86
2024/03/21 08:10:47;;;;;;;8.63;2.17;;;;;;;12.88;56.71;102540.06;4950469;28;99887;-85
2024/03/21 08:13:12;;;;;;;9.25;2.13;;;;;;;12.91;56.47;102548.91;4945681;28;100093;-85
2024/03/21 08:15:38;;;;;;;10.27;2.72;;;;;;;12.94;56.52;102549.00;4956272;28;96807;-86
2024/03/21 08:18:04;;;;;;;9.23;2.15;;;;;;;12.99;56.65;102551.75;4955197;28;96859;-85
2024/03/21 08:20:30;;;;;;;8.30;2.17;;;;;;;13.03;56.51;102543.16;4960223;28;97874;-86
2024/03/21 08:22:56;;;;;;;8.50;1.67;;;;;;;13.10;56.66;102552.97;4948578;28;100258;-86
2024/03/21 08:25:21;;;;;;;13.52;2.30;;;;;;;13.15;56.52;102547.84;4941949;28;96934;-86
2024/03/21 08:27:47;;;;;;;6.43;1.70;;;;;;;13.21;56.57;102553.28;4962974;28;96947;-86
2024/03/21 08:30:12;;;;;;;7.38;1.83;;;;;;;13.25;56.31;102557.75;4963511;28;97550;-86
2024/03/21 08:32:38;;;;;;;5.63;1.90;;;;;;;13.25;56.20;102552.50;4952300;28;99588;-85
2024/03/21 08:35:04;;;;;;;7.70;2.28;;;;;;;13.26;56.07;102556.91;4957575;28;96914;-86
2024/03/21 08:37:30;;;;;;;7.47;1.90;;;;;;;13.25;56.09;102562.13;4965271;28;96892;-85
2024/03/21 08:39:57;;;;;;;7.13;1.83;;;;;;;13.28;56.45;102567.41;4957721;28;98030;-86
2024/03/21 08:42:23;;;;;;;7.43;2.05;;;;;;;13.32;56.03;102572.84;4954192;28;100101;-86
2024/03/21 08:44:48;;;;;;;7.25;1.85;;;;;;;13.37;56.23;102577.31;4959593;28;96812;-85
2024/03/21 08:47:14;;;;;;;4.93;1.83;;;;;;;13.40;55.96;102580.91;4960216;28;97025;-85
2024/03/21 08:49:39;;;;;;;7.85;2.03;;;;;;;13.46;56.08;102578.47;4947880;28;100307;-85
2024/03/21 08:52:05;;;;;;;9.68;2.05;;;;;;;13.50;55.77;102582.97;4953161;28;99715;-85
2024/03/21 08:54:30;;;;;;;4.93;1.55;;;;;;;13.54;55.79;102583.94;4959363;28;96857;-84
2024/03/21 08:56:56;;;;;;;4.82;1.55;;;;;;;13.58;55.88;102579.66;4958392;28;97000;-86
2024/03/21 08:59:21;;;;;;;6.22;2.08;;;;;;;13.59;55.67;102581.44;4946248;28;100589;-85
2024/03/21 09:01:47;;;;;;;5.07;2.00;;;;;;;13.57;55.48;102581.41;4940959;28;101599;-85
2024/03/21 09:04:13;;;;;;;9.35;1.80;;;;;;;13.55;55.66;102590.97;4954790;28;96996;-85
2024/03/21 09:06:39;;;;;;;9.00;2.20;;;;;;;13.53;55.36;102584.78;4961040;28;96998;-86
2024/03/21 09:09:06;;;;;;;7.40;1.90;;;;;;;13.54;55.43;102585.69;4957804;28;100726;-86
2024/03/21 09:11:34;;;;;;;8.75;2.20;;;;;;;13.54;55.74;102591.78;4943045;28;100058;-85
2024/03/21 09:14:01;;;;;;;7.03;1.95;;;;;;;13.59;55.71;102586.69;4961030;28;96889;-85
2024/03/21 09:16:27;;;;;;;6.03;2.05;;;;;;;13.61;55.49;102590.25;4960732;28;96868;-86
2024/03/21 09:18:53;;;;;;;13.75;2.03;;;;;;;13.62;55.51;102587.66;4968641;28;97552;-86
2024/03/21 09:21:19;;;;;;;9.45;2.28;;;;;;;13.66;55.88;102591.25;4959208;28;100821;-85
2024/03/21 09:23:45;;;;;;;7.28;1.95;;;;;;;13.70;55.57;102601.84;4961539;28;96962;-85
2024/03/21 09:26:12;;;;;;;8.77;1.80;;;;;;;13.74;55.49;102600.22;4955347;28;96957;-85
2024/03/21 09:28:37;;;;;;;8.60;1.85;;;;;;;13.74;55.61;102592.34;4958300;28;100547;-85
2024/03/21 09:31:04;;;;;;;7.25;1.75;;;;;;;13.79;55.33;102590.75;4957358;28;97498;-85
2024/03/21 09:33:29;;;;;;;12.70;2.42;;;;;;;13.81;55.47;102590.78;4952408;28;98117;-86
2024/03/21 09:35:59;;;;;;;8.80;2.10;;;;;;;13.81;55.19;102604.78;4962571;28;97056;-85
2024/03/21 09:38:28;;;;;;;7.05;2.03;;;;;;;13.83;55.39;102605.72;4942626;28;100331;-85
2024/03/21 09:40:56;;;;;;;9.27;2.17;;;;;;;13.90;55.28;102605.06;4972203;28;100625;-85
2024/03/21 09:43:21;;;;;;;10.57;2.38;;;;;;;13.95;55.20;102613.03;4935346;28;97014;-86
2024/03/21 09:45:51;;;;;;;9.82;1.77;;;;;;;13.97;54.94;102620.94;4949270;28;96935;-86
2024/03/21 09:48:17;;;;;;;5.90;2.05;;;;;;;13.96;54.64;102620.06;4950835;28;101384;-86
2024/03/21 09:50:46;;;;;;;7.97;2.20;;;;;;;13.96;54.46;102621.81;4956244;28;100072;-86
2024/03/21 09:53:15;;;;;;;7.95;2.00;;;;;;;13.97;54.76;102626.19;4969128;28;97049;-86
2024/03/21 09:55:42;;;;;;;10.82;2.53;;;;;;;14.00;54.76;102637.66;4967880;28;96958;-93
2024/03/21 09:58:12;;;;;;;7.38;1.92;;;;;;;14.03;54.43;102648.25;4944646;28;98166;-93
2024/03/21 10:00:39;;;;;;;7.22;2.38;;;;;;;14.06;54.63;102652.66;4961064;28;100209;-94
2024/03/21 10:03:05;;;;;;;9.55;2.50;;;;;;;14.08;54.83;102659.75;4960710;28;96757;-93
2024/03/21 10:05:31;;;;;;;9.20;2.17;;;;;;;14.12;54.58;102665.06;4970379;28;96679;-94
2024/03/21 10:07:56;;;;;;;6.32;1.80;;;;;;;14.12;54.57;102647.59;4984182;28;97984;-95
2024/03/21 10:10:25;;;;;;;5.65;2.53;;;;;;;14.15;54.83;102650.28;4984464;28;99509;-95
2024/03/21 10:12:50;;;;;;;5.22;2.17;;;;;;;14.22;54.48;102653.97;4967891;28;96616;-94
2024/03/21 10:15:17;;;;;;;8.98;1.92;;;;;;;14.25;54.51;102654.06;4970456;28;96688;-96
2024/03/21 10:17:43;;;;;;;6.93;2.08;;;;;;;14.32;54.76;102666.50;4970042;28;96585;-95
2024/03/21 10:20:11;;;;;;;6.22;2.08;;;;;;;14.40;54.73;102659.72;4970509;28;99581;-93
2024/03/21 10:23:43;;;;;;;;;;;;;;;;;;;;;
2024/03/21 10:26:33;;;;;;;5.88;2.17;;;;;;;14.58;54.10;102669.84;4955830;28;96838;-94
2024/03/21 10:28:59;;;;;;;6.93;2.08;;;;;;;14.59;53.91;102665.47;4920603;28;100428;-93
2024/03/21 10:31:25;;;;;;;6.57;2.10;;;;;;;14.62;53.96;102665.53;4941633;28;100381;-94
2024/03/21 10:33:57;;;;;;;5.70;2.28;;;;;;;14.64;54.05;102669.97;4944548;28;96748;-92
2024/03/21 10:36:23;;;;;;;5.95;2.72;;;;;;;14.73;54.52;102648.31;4925403;28;96713;-94
2024/03/21 10:38:49;;;;;;;4.72;2.25;;;;;;;14.90;54.14;102653.06;4923746;28;99224;-87
2024/03/21 10:41:26;;;;;;;12.02;2.67;;;;;;;14.96;53.53;102661.09;4913710;28;100847;-87
2024/03/21 10:44:16;;;;;;;6.70;2.72;;;;;;;14.95;53.36;102651.44;4920217;28;97025;-94
2024/03/21 10:46:42;;;;;;;5.45;2.13;;;;;;;14.96;53.26;102656.72;4911892;28;97012;-93
2024/03/21 10:49:14;;;;;;;7.80;2.47;;;;;;;15.00;53.29;102653.31;4915494;28;98328;-93
2024/03/21 10:51:49;;;;;;;5.65;2.70;;;;;;;15.06;53.06;102644.66;4930342;28;97941;-94
2024/03/21 10:54:16;;;;;;;6.68;2.70;;;;;;;15.11;53.58;102642.16;4943230;28;96906;-95
2024/03/21 10:56:42;;;;;;;9.80;3.45;;;;;;;15.19;53.36;102644.09;4928231;28;96560;-94
2024/03/21 10:59:16;;;;;;;8.70;3.25;;;;;;;15.27;53.05;102653.91;4927800;28;100841;-95
2024/03/21 11:01:44;;;;;;;6.90;3.50;;;;;;;15.35;53.20;102652.34;4910936;28;96610;-94
2024/03/21 11:04:11;;;;;;;7.65;3.72;;;;;;;15.42;52.83;102646.34;4943097;28;96616;-95
2024/03/21 11:06:42;;;;;;;7.25;3.72;;;;;;;15.44;52.41;102644.66;4945357;28;96994;-96
2024/03/21 11:09:09;;;;;;;9.32;3.95;;;;;;;15.47;52.62;102641.19;4948009;28;100553;-96
2024/03/21 11:11:35;;;;;;;8.80;4.57;;;;;;;15.50;52.31;102643.88;4967828;28;97916;-96
2024/03/21 11:14:06;;;;;;;13.27;5.10;;;;;;;15.54;52.49;102644.00;4968479;28;96371;-96
2024/03/21 11:16:32;;;;;;;12.10;5.68;;;;;;;15.62;52.73;102630.97;4949781;28;96462;-96
2024/03/21 11:18:58;;;;;;;11.95;5.22;;;;;;;15.74;52.40;102635.59;4949926;28;98889;-96
2024/03/21 11:21:24;;;;;;;10.05;5.22;;;;;;;15.78;52.16;102634.84;4966422;28;97803;-95
2024/03/21 11:23:53;;;;;;;9.82;5.30;;;;;;;15.78;51.64;102638.34;4948342;28;96582;-96